createdAt,value
2019-01-14T00:00:28.290Z,-6.06
2019-01-14T00:01:28.761Z,-6.05
2019-01-14T00:02:29.232Z,-6.05
2019-01-14T00:03:29.703Z,-6.05
2019-01-14T00:04:30.175Z,-6.06
2019-01-14T00:05:30.647Z,-6.07
2019-01-14T00:06:31.118Z,-6.06
2019-01-14T00:07:31.593Z,-6.06
2019-01-14T00:08:32.061Z,-6.06
2019-01-14T00:09:32.557Z,-6.06
2019-01-14T00:10:33.006Z,-6.06
2019-01-14T00:11:33.476Z,-6.06
2019-01-14T00:12:33.947Z,-6.06
2019-01-14T00:13:34.420Z,-6.06
2019-01-14T00:14:34.888Z,-6.06
2019-01-14T00:15:35.361Z,-6.06
2019-01-14T00:16:35.835Z,-6.06
2019-01-14T00:17:36.306Z,-6.06
2019-01-14T00:18:36.777Z,-6.06
2019-01-14T00:19:37.247Z,-6.06
2019-01-14T00:20:37.717Z,-6.06
2019-01-14T00:21:38.242Z,-6.06
2019-01-14T00:22:38.659Z,-6.06
2019-01-14T00:23:39.135Z,-6.07
2019-01-14T00:24:39.603Z,-6.06
2019-01-14T00:25:40.075Z,-6.06
2019-01-14T00:26:40.546Z,-6.06
2019-01-14T00:27:41.023Z,-6.06
2019-01-14T00:28:41.490Z,-6.06
2019-01-14T00:29:41.963Z,-6.04
2019-01-14T00:30:42.434Z,-6.06
2019-01-14T00:31:42.906Z,-6.06
2019-01-14T00:32:43.378Z,-6.06
2019-01-14T00:33:43.847Z,-6.06
2019-01-14T00:34:44.321Z,-6.06
2019-01-14T00:35:44.791Z,-6.06
2019-01-14T00:36:45.264Z,-6.06
2019-01-14T00:37:45.734Z,-6.06
2019-01-14T00:38:46.208Z,-6.06
2019-01-14T00:39:46.679Z,-6.06
2019-01-14T00:40:47.155Z,-6.06
2019-01-14T00:41:47.620Z,-6.06
2019-01-14T00:42:48.091Z,-6.06
2019-01-14T00:43:48.562Z,-6.06
2019-01-14T00:44:49.035Z,-6.06
2019-01-14T00:45:49.506Z,-6.06
2019-01-14T00:46:49.977Z,-6.08
2019-01-14T00:47:50.449Z,-6.06
2019-01-14T00:48:50.920Z,-6.07
2019-01-14T00:49:51.390Z,-6.08
2019-01-14T00:50:51.863Z,-6.08
2019-01-14T00:51:52.336Z,-6.06
2019-01-14T00:52:52.807Z,-6.04
2019-01-14T00:53:53.278Z,-6.06
2019-01-14T00:54:53.748Z,-6.08
2019-01-14T00:55:54.220Z,-6.08
2019-01-14T00:56:54.693Z,-6.07
2019-01-14T00:57:55.165Z,-6.06
2019-01-14T00:58:55.634Z,-6.06
2019-01-14T00:59:56.106Z,-6.08
2019-01-14T01:00:56.579Z,-6.06
2019-01-14T01:01:57.050Z,-6.06
2019-01-14T01:02:57.521Z,-6.08
2019-01-14T01:03:57.993Z,-6.07
2019-01-14T01:04:58.466Z,-6.06
2019-01-14T01:05:58.936Z,-6.06
2019-01-14T01:06:59.406Z,-6.06
2019-01-14T01:07:59.880Z,-6.06
2019-01-14T01:09:00.353Z,-6.06
2019-01-14T01:10:00.824Z,-6.05
2019-01-14T01:11:01.297Z,-6.05
2019-01-14T01:12:01.817Z,-6.04
2019-01-14T01:13:02.240Z,-6.06
2019-01-14T01:14:02.712Z,-6.06
2019-01-14T01:15:03.537Z,-6.07
2019-01-14T01:16:03.656Z,-6.06
2019-01-14T01:17:04.130Z,-6.06
2019-01-14T01:18:04.599Z,-6.07
2019-01-14T01:19:05.069Z,-6.06
2019-01-14T01:20:05.540Z,-6.07
2019-01-14T01:21:06.010Z,-6.06
2019-01-14T01:22:06.535Z,-6.06
2019-01-14T01:23:06.953Z,-6.08
2019-01-14T01:24:07.426Z,-6.08
2019-01-14T01:25:07.897Z,-6.06
2019-01-14T01:26:08.369Z,-6.08
2019-01-14T01:27:08.845Z,-6.08
2019-01-14T01:28:09.315Z,-6.08
2019-01-14T01:29:09.784Z,-6.06
2019-01-14T01:30:10.257Z,-6.06
2019-01-14T01:31:10.724Z,-6.04
2019-01-14T01:32:11.197Z,-6.06
2019-01-14T01:33:11.666Z,-6.06
2019-01-14T01:34:12.141Z,-6.06
2019-01-14T01:35:12.613Z,-6.06
2019-01-14T01:36:13.083Z,-6.07
2019-01-14T01:37:13.604Z,-6.06
2019-01-14T01:38:14.030Z,-6.07
2019-01-14T01:39:14.500Z,-6.07
2019-01-14T01:40:14.971Z,-6.08
2019-01-14T01:41:15.445Z,-6.06
2019-01-14T01:42:15.917Z,-6.06
2019-01-14T01:43:16.612Z,-6.06
2019-01-14T01:44:16.857Z,-6.07
2019-01-14T01:45:17.335Z,-6.04
2019-01-14T01:46:17.799Z,-6.08
2019-01-14T01:47:18.269Z,-6.06
2019-01-14T01:48:18.740Z,-6.06
2019-01-14T01:49:19.213Z,-6.06
2019-01-14T01:50:19.683Z,-6.06
2019-01-14T01:51:20.166Z,-6.06
2019-01-14T01:52:20.626Z,-6.06
2019-01-14T01:53:21.098Z,-6.05
2019-01-14T01:54:21.571Z,-6.06
2019-01-14T01:55:22.041Z,-6.06
2019-01-14T01:56:22.512Z,-6.06
2019-01-14T01:57:22.984Z,-6.06
2019-01-14T01:58:23.796Z,-6.06
2019-01-14T01:59:23.924Z,-6.05
2019-01-14T02:00:24.400Z,-6.06
2019-01-14T02:01:24.870Z,-6.04
2019-01-14T02:02:25.342Z,-6.06
2019-01-14T02:03:25.814Z,-6.05
2019-01-14T02:04:26.287Z,-6.05
2019-01-14T02:05:26.796Z,-6.06
2019-01-14T02:06:27.232Z,-6.05
2019-01-14T02:07:27.698Z,-6.05
2019-01-14T02:08:28.170Z,-6.05
2019-01-14T02:09:28.642Z,-6.04
2019-01-14T02:10:29.113Z,-6.04
2019-01-14T02:11:29.584Z,-6.05
2019-01-14T02:12:30.055Z,-6.06
2019-01-14T02:13:30.527Z,-6.04
2019-01-14T02:14:31.000Z,-6.06
2019-01-14T02:15:31.474Z,-6.05
2019-01-14T02:16:31.945Z,-6.04
2019-01-14T02:17:32.413Z,-6.04
2019-01-14T02:18:32.885Z,-6.04
2019-01-14T02:19:33.356Z,-6.04
2019-01-14T02:20:33.828Z,-6.05
2019-01-14T02:21:34.299Z,-6.05
2019-01-14T02:22:34.770Z,-6.04
2019-01-14T02:23:35.257Z,-6.04
2019-01-14T02:24:35.712Z,-6.04
2019-01-14T02:25:36.185Z,-6.04
2019-01-14T02:26:36.653Z,-6.04
2019-01-14T02:27:37.124Z,-6.04
2019-01-14T02:28:37.601Z,-6.04
2019-01-14T02:29:38.069Z,-6.03
2019-01-14T02:30:38.548Z,-6.04
2019-01-14T02:31:39.013Z,-6.02
2019-01-14T02:32:39.483Z,-6.04
2019-01-14T02:33:39.955Z,-6.04
2019-01-14T02:34:40.426Z,-6.04
2019-01-14T02:35:41.237Z,-6.03
2019-01-14T02:36:48.348Z,-6.04
2019-01-14T02:37:41.843Z,-6.03
2019-01-14T02:38:42.314Z,-6.02
2019-01-14T02:39:42.792Z,-6.02
2019-01-14T02:40:43.259Z,-6.02
2019-01-14T02:41:43.726Z,-6.03
2019-01-14T02:42:44.199Z,-6.02
2019-01-14T02:43:44.670Z,-6.02
2019-01-14T02:44:45.142Z,-6.02
2019-01-14T02:45:45.614Z,-6.02
2019-01-14T02:46:46.086Z,-6.02
2019-01-14T02:47:46.897Z,-6.01
2019-01-14T02:48:47.028Z,-6.02
2019-01-14T02:49:47.499Z,-6.02
2019-01-14T02:50:47.970Z,-6.00
2019-01-14T02:51:48.445Z,-6.00
2019-01-14T02:52:48.969Z,-6.00
2019-01-14T02:53:49.385Z,-6.00
2019-01-14T02:54:49.859Z,-6.00
2019-01-14T02:55:50.327Z,-6.00
2019-01-14T02:56:51.142Z,-6.00
2019-01-14T02:57:51.269Z,-6.01
2019-01-14T02:58:51.742Z,-6.00
2019-01-14T02:59:52.212Z,-5.98
2019-01-14T03:00:52.694Z,-5.99
2019-01-14T03:01:53.157Z,-6.00
2019-01-14T03:02:53.630Z,-5.99
2019-01-14T03:03:54.096Z,-5.98
2019-01-14T03:04:54.568Z,-5.98
2019-01-14T03:05:55.041Z,-5.98
2019-01-14T03:06:57.987Z,-5.98
2019-01-14T03:07:55.984Z,-5.98
2019-01-14T03:08:56.797Z,-5.98
2019-01-14T03:09:56.925Z,-5.98
2019-01-14T03:10:57.397Z,-5.98
2019-01-14T03:11:57.869Z,-5.98
2019-01-14T03:12:58.339Z,-5.98
2019-01-14T03:13:58.811Z,-5.98
2019-01-14T03:14:59.287Z,-5.98
2019-01-14T03:15:59.792Z,-5.98
2019-01-14T03:17:00.229Z,-5.96
2019-01-14T03:18:00.697Z,-5.96
2019-01-14T03:19:01.168Z,-5.97
2019-01-14T03:20:01.641Z,-5.98
2019-01-14T03:21:02.119Z,-5.98
2019-01-14T03:22:02.582Z,-5.98
2019-01-14T03:23:03.054Z,-5.96
2019-01-14T03:24:03.529Z,-5.96
2019-01-14T03:25:03.997Z,-5.94
2019-01-14T03:26:04.470Z,-5.96
2019-01-14T03:27:04.946Z,-5.96
2019-01-14T03:28:05.463Z,-5.96
2019-01-14T03:29:06.085Z,-5.95
2019-01-14T03:30:06.357Z,-5.96
2019-01-14T03:31:06.825Z,-5.94
2019-01-14T03:32:07.299Z,-5.96
2019-01-14T03:33:07.906Z,-5.94
2019-01-14T03:34:08.243Z,-5.94
2019-01-14T03:35:08.727Z,-5.94
2019-01-14T03:36:09.182Z,-5.94
2019-01-14T03:37:09.661Z,-5.94
2019-01-14T03:38:10.125Z,-5.96
2019-01-14T03:39:10.597Z,-5.94
2019-01-14T03:40:11.066Z,-5.94
2019-01-14T03:41:11.545Z,-5.95
2019-01-14T03:42:12.011Z,-5.94
2019-01-14T03:43:12.483Z,-5.94
2019-01-14T03:44:12.954Z,-5.95
2019-01-14T03:46:13.898Z,-5.94
2019-01-14T03:47:14.368Z,-5.94
2019-01-14T03:48:14.889Z,-5.94
2019-01-14T03:49:15.312Z,-5.94
2019-01-14T03:50:15.786Z,-5.92
2019-01-14T03:51:16.260Z,-5.92
2019-01-14T03:52:16.725Z,-5.92
2019-01-14T03:53:17.214Z,-5.92
2019-01-14T03:54:17.673Z,-5.94
2019-01-14T03:55:18.143Z,-5.94
2019-01-14T03:56:18.611Z,-5.92
2019-01-14T03:57:19.084Z,-5.92
2019-01-14T03:58:19.897Z,-5.92
2019-01-14T03:59:20.027Z,-5.92
2019-01-14T04:00:20.499Z,-5.92
2019-01-14T04:01:20.974Z,-5.92
2019-01-14T04:02:21.445Z,-5.92
2019-01-14T04:03:21.917Z,-5.92
2019-01-14T04:04:22.385Z,-5.94
2019-01-14T04:05:22.859Z,-5.92
2019-01-14T04:06:23.330Z,-5.91
2019-01-14T04:07:23.801Z,-5.92
2019-01-14T04:08:24.272Z,-5.92
2019-01-14T04:09:24.743Z,-5.92
2019-01-14T04:10:25.216Z,-5.90
2019-01-14T04:11:25.688Z,-5.90
2019-01-14T04:12:26.159Z,-5.90
2019-01-14T04:13:26.680Z,-5.92
2019-01-14T04:14:27.101Z,-5.90
2019-01-14T04:15:27.574Z,-5.90
2019-01-14T04:16:28.054Z,-5.90
2019-01-14T04:17:28.517Z,-5.90
2019-01-14T04:18:28.991Z,-5.90
2019-01-14T04:19:29.462Z,-5.90
2019-01-14T04:20:29.934Z,-5.90
2019-01-14T04:21:30.406Z,-5.90
2019-01-14T04:22:31.217Z,-5.89
2019-01-14T04:23:31.346Z,-5.89
2019-01-14T04:24:31.818Z,-5.90
2019-01-14T04:25:32.286Z,-5.88
2019-01-14T04:26:32.759Z,-5.88
2019-01-14T04:27:33.232Z,-5.88
2019-01-14T04:28:33.761Z,-5.88
2019-01-14T04:29:34.175Z,-5.88
2019-01-14T04:30:34.647Z,-5.88
2019-01-14T04:31:35.121Z,-5.88
2019-01-14T04:32:35.589Z,-5.90
2019-01-14T04:33:36.060Z,-5.86
2019-01-14T04:34:36.533Z,-5.88
2019-01-14T04:35:37.005Z,-5.88
2019-01-14T04:36:37.473Z,-5.88
2019-01-14T04:37:37.947Z,-5.88
2019-01-14T04:38:38.470Z,-5.87
2019-01-14T04:39:38.892Z,-5.86
2019-01-14T04:40:39.365Z,-5.88
2019-01-14T04:41:39.832Z,-5.87
2019-01-14T04:42:40.306Z,-5.86
2019-01-14T04:43:40.777Z,-5.86
2019-01-14T04:44:41.355Z,-5.86
2019-01-14T04:45:41.721Z,-5.86
2019-01-14T04:46:42.538Z,-5.86
2019-01-14T04:47:42.667Z,-5.87
2019-01-14T04:48:43.478Z,-5.86
2019-01-14T04:49:43.608Z,-5.86
2019-01-14T04:50:44.079Z,-5.88
2019-01-14T04:51:44.556Z,-5.86
2019-01-14T04:52:45.020Z,-5.88
2019-01-14T04:53:45.492Z,-5.86
2019-01-14T04:54:45.965Z,-5.86
2019-01-14T04:55:46.436Z,-5.88
2019-01-14T04:56:46.908Z,-5.86
2019-01-14T04:57:47.448Z,-5.88
2019-01-14T04:58:47.851Z,-5.86
2019-01-14T04:59:48.349Z,-5.86
2019-01-14T05:00:48.797Z,-5.88
2019-01-14T05:01:49.268Z,-5.88
2019-01-14T05:02:49.744Z,-5.88
2019-01-14T05:03:50.211Z,-5.88
2019-01-14T05:04:50.683Z,-5.88
2019-01-14T05:05:51.156Z,-5.88
2019-01-14T05:06:51.627Z,-5.88
2019-01-14T05:07:52.098Z,-5.88
2019-01-14T05:08:52.572Z,-5.89
2019-01-14T05:09:53.041Z,-5.88
2019-01-14T05:10:53.513Z,-5.88
2019-01-14T05:11:53.985Z,-5.88
2019-01-14T05:12:54.458Z,-5.88
2019-01-14T05:13:54.928Z,-5.88
2019-01-14T05:14:55.400Z,-5.87
2019-01-14T05:15:55.913Z,-5.88
2019-01-14T05:16:56.341Z,-5.88
2019-01-14T05:17:56.814Z,-5.88
2019-01-14T05:18:57.286Z,-5.88
2019-01-14T05:19:57.767Z,-5.88
2019-01-14T05:20:58.230Z,-5.88
2019-01-14T05:21:58.702Z,-5.88
2019-01-14T05:22:59.173Z,-5.88
2019-01-14T05:23:59.696Z,-5.87
2019-01-14T05:25:00.351Z,-5.88
2019-01-14T05:26:00.588Z,-5.88
2019-01-14T05:27:01.061Z,-5.88
2019-01-14T05:28:01.581Z,-5.90
2019-01-14T05:29:02.002Z,-5.87
2019-01-14T05:30:02.475Z,-5.88
2019-01-14T05:31:03.290Z,-5.88
2019-01-14T05:32:03.437Z,-5.88
2019-01-14T05:33:03.887Z,-5.90
2019-01-14T05:34:04.703Z,-5.88
2019-01-14T05:35:04.835Z,-5.88
2019-01-14T05:36:05.305Z,-5.89
2019-01-14T05:37:05.776Z,-5.88
2019-01-14T05:38:06.253Z,-5.88
2019-01-14T05:39:06.770Z,-5.89
2019-01-14T05:40:07.194Z,-5.88
2019-01-14T05:41:07.663Z,-5.88
2019-01-14T05:42:08.142Z,-5.86
2019-01-14T05:43:08.611Z,-5.88
2019-01-14T05:44:09.079Z,-5.88
2019-01-14T05:45:09.550Z,-5.90
2019-01-14T05:46:10.364Z,-5.89
2019-01-14T05:47:10.492Z,-5.88
2019-01-14T05:48:10.965Z,-5.89
2019-01-14T05:49:11.441Z,-5.88
2019-01-14T05:50:11.908Z,-5.88
2019-01-14T05:51:12.380Z,-5.88
2019-01-14T05:52:12.892Z,-5.88
2019-01-14T05:53:13.325Z,-5.88
2019-01-14T05:54:13.847Z,-5.88
2019-01-14T05:55:14.269Z,-5.88
2019-01-14T05:56:15.081Z,-5.88
2019-01-14T05:57:15.212Z,-5.88
2019-01-14T05:58:15.680Z,-5.88
2019-01-14T05:59:16.202Z,-5.88
2019-01-14T06:00:16.630Z,-5.88
2019-01-14T06:01:17.094Z,-5.88
2019-01-14T06:02:17.567Z,-5.88
2019-01-14T06:03:18.044Z,-5.88
2019-01-14T06:04:18.513Z,-5.88
2019-01-14T06:05:18.982Z,-5.90
2019-01-14T06:06:19.454Z,-5.88
2019-01-14T06:07:20.267Z,-5.87
2019-01-14T06:08:20.540Z,-5.88
2019-01-14T06:09:20.870Z,-5.86
2019-01-14T06:10:21.339Z,-5.88
2019-01-14T06:11:21.812Z,-5.88
2019-01-14T06:12:22.286Z,-5.86
2019-01-14T06:13:22.756Z,-5.88
2019-01-14T06:14:23.226Z,-5.87
2019-01-14T06:15:23.708Z,-5.86
2019-01-14T06:16:24.170Z,-5.86
2019-01-14T06:17:24.641Z,-5.86
2019-01-14T06:18:25.129Z,-5.86
2019-01-14T06:19:25.602Z,-5.86
2019-01-14T06:20:26.260Z,-5.86
2019-01-14T06:21:26.528Z,-5.86
2019-01-14T06:22:26.998Z,-5.86
2019-01-14T06:23:27.471Z,-5.86
2019-01-14T06:24:27.945Z,-5.88
2019-01-14T06:25:28.413Z,-5.87
2019-01-14T06:26:28.883Z,-5.88
2019-01-14T06:27:29.356Z,-5.86
2019-01-14T06:28:29.829Z,-5.86
2019-01-14T06:29:30.298Z,-5.88
2019-01-14T06:30:30.772Z,-5.87
2019-01-14T06:31:31.242Z,-5.86
2019-01-14T06:32:31.716Z,-5.86
2019-01-14T06:33:32.187Z,-5.86
2019-01-14T06:34:32.714Z,-5.87
2019-01-14T06:35:33.135Z,-5.86
2019-01-14T06:36:33.599Z,-5.87
2019-01-14T06:37:34.072Z,-5.86
2019-01-14T06:38:34.544Z,-5.86
2019-01-14T06:39:35.015Z,-5.87
2019-01-14T06:40:35.487Z,-5.86
2019-01-14T06:41:37.231Z,-5.87
2019-01-14T06:42:36.430Z,-5.86
2019-01-14T06:43:36.899Z,-5.86
2019-01-14T06:44:37.715Z,-5.86
2019-01-14T06:45:37.847Z,-5.86
2019-01-14T06:46:38.318Z,-5.86
2019-01-14T06:47:38.787Z,-5.84
2019-01-14T06:48:39.264Z,-5.86
2019-01-14T06:49:39.731Z,-5.86
2019-01-14T06:50:40.202Z,-5.86
2019-01-14T06:51:40.713Z,-5.84
2019-01-14T06:52:41.146Z,-5.86
2019-01-14T06:53:41.617Z,-5.86
2019-01-14T06:54:42.139Z,-5.86
2019-01-14T06:55:42.564Z,-5.86
2019-01-14T06:56:43.032Z,-5.86
2019-01-14T06:57:43.507Z,-5.86
2019-01-14T06:58:43.975Z,-5.87
2019-01-14T06:59:44.457Z,-5.86
2019-01-14T07:00:44.922Z,-5.84
2019-01-14T07:01:45.393Z,-5.85
2019-01-14T07:02:45.862Z,-5.85
2019-01-14T07:03:46.336Z,-5.86
2019-01-14T07:04:46.807Z,-5.85
2019-01-14T07:05:47.279Z,-5.85
2019-01-14T07:06:47.749Z,-5.85
2019-01-14T07:07:48.221Z,-5.84
2019-01-14T07:08:48.692Z,-5.85
2019-01-14T07:09:49.163Z,-5.84
2019-01-14T07:10:49.638Z,-5.83
2019-01-14T07:11:50.106Z,-5.85
2019-01-14T07:12:50.579Z,-5.84
2019-01-14T07:13:51.050Z,-5.84
2019-01-14T07:14:51.522Z,-5.84
2019-01-14T07:15:51.996Z,-5.84
2019-01-14T07:16:52.465Z,-5.84
2019-01-14T07:17:52.937Z,-5.84
2019-01-14T07:18:53.408Z,-5.84
2019-01-14T07:19:53.880Z,-5.82
2019-01-14T07:20:54.351Z,-5.84
2019-01-14T07:21:54.821Z,-5.82
2019-01-14T07:22:55.635Z,-5.84
2019-01-14T07:23:55.769Z,-5.82
2019-01-14T07:24:56.286Z,-5.82
2019-01-14T07:25:56.708Z,-5.84
2019-01-14T07:26:57.180Z,-5.84
2019-01-14T07:27:57.652Z,-5.82
2019-01-14T07:28:58.331Z,-5.82
2019-01-14T07:29:58.594Z,-5.82
2019-01-14T07:30:59.068Z,-5.83
2019-01-14T07:31:59.538Z,-5.83
2019-01-14T07:33:00.010Z,-5.82
2019-01-14T07:34:00.480Z,-5.82
2019-01-14T07:35:02.249Z,-5.83
2019-01-14T07:36:01.461Z,-5.82
2019-01-14T07:37:01.897Z,-5.80
2019-01-14T07:38:06.673Z,-5.82
2019-01-14T07:39:02.842Z,-5.81
2019-01-14T07:40:03.313Z,-5.82
2019-01-14T07:41:03.783Z,-5.82
2019-01-14T07:42:04.254Z,-5.82
2019-01-14T07:43:04.730Z,-5.82
2019-01-14T07:44:05.200Z,-5.82
2019-01-14T07:45:05.671Z,-5.82
2019-01-14T07:46:06.145Z,-5.83
2019-01-14T07:47:06.612Z,-5.83
2019-01-14T07:48:07.087Z,-5.82
2019-01-14T07:49:07.556Z,-5.82
2019-01-14T07:50:08.027Z,-5.82
2019-01-14T07:51:08.501Z,-5.81
2019-01-14T07:52:08.970Z,-5.82
2019-01-14T07:53:09.442Z,-5.82
2019-01-14T07:54:09.913Z,-5.82
2019-01-14T07:55:10.420Z,-5.82
2019-01-14T07:56:10.858Z,-5.81
2019-01-14T07:57:11.332Z,-5.82
2019-01-14T07:58:11.802Z,-5.80
2019-01-14T07:59:12.274Z,-5.81
2019-01-14T08:00:12.796Z,-5.82
2019-01-14T08:01:13.215Z,-5.82
2019-01-14T08:02:13.686Z,-5.80
2019-01-14T08:03:14.158Z,-5.80
2019-01-14T08:04:14.631Z,-5.82
2019-01-14T08:05:15.102Z,-5.82
2019-01-14T08:06:15.573Z,-5.82
2019-01-14T08:07:16.047Z,-5.80
2019-01-14T08:08:16.525Z,-5.82
2019-01-14T08:09:16.989Z,-5.82
2019-01-14T08:10:17.461Z,-5.82
2019-01-14T08:11:17.933Z,-5.81
2019-01-14T08:12:18.405Z,-5.82
2019-01-14T08:13:18.874Z,-5.81
2019-01-14T08:14:19.347Z,-5.82
2019-01-14T08:15:19.829Z,-5.80
2019-01-14T08:16:20.290Z,-5.80
2019-01-14T08:17:20.760Z,-5.81
2019-01-14T08:18:21.233Z,-5.80
2019-01-14T08:19:21.708Z,-5.80
2019-01-14T08:20:22.227Z,-5.82
2019-01-14T08:21:22.652Z,-5.80
2019-01-14T08:22:23.120Z,-5.81
2019-01-14T08:23:23.592Z,-5.81
2019-01-14T08:24:24.066Z,-5.80
2019-01-14T08:25:24.536Z,-5.80
2019-01-14T08:26:25.006Z,-5.80
2019-01-14T08:27:25.476Z,-5.80
2019-01-14T08:28:25.949Z,-5.80
2019-01-14T08:29:26.421Z,-5.81
2019-01-14T08:30:26.894Z,-5.80
2019-01-14T08:31:27.364Z,-5.81
2019-01-14T08:32:27.840Z,-5.80
2019-01-14T08:33:28.308Z,-5.80
2019-01-14T08:34:28.779Z,-5.79
2019-01-14T08:35:29.304Z,-5.80
2019-01-14T08:36:29.723Z,-5.79
2019-01-14T08:37:30.195Z,-5.80
2019-01-14T08:38:30.666Z,-5.81
2019-01-14T08:39:31.137Z,-5.80
2019-01-14T08:40:31.610Z,-5.80
2019-01-14T08:41:32.084Z,-5.80
2019-01-14T08:42:32.553Z,-5.80
2019-01-14T08:43:33.027Z,-5.80
2019-01-14T08:44:33.496Z,-5.79
2019-01-14T08:45:33.970Z,-5.79
2019-01-14T08:46:34.441Z,-5.80
2019-01-14T08:47:34.910Z,-5.78
2019-01-14T08:48:35.386Z,-5.80
2019-01-14T08:49:35.854Z,-5.80
2019-01-14T08:50:36.326Z,-5.78
2019-01-14T08:51:36.802Z,-5.79
2019-01-14T08:52:37.271Z,-5.79
2019-01-14T08:53:37.741Z,-5.80
2019-01-14T08:54:38.214Z,-5.78
2019-01-14T08:55:38.684Z,-5.78
2019-01-14T08:56:39.157Z,-5.78
2019-01-14T08:57:39.626Z,-5.78
2019-01-14T08:58:40.100Z,-5.78
2019-01-14T08:59:40.571Z,-5.78
2019-01-14T09:00:41.042Z,-5.78
2019-01-14T09:01:41.514Z,-5.77
2019-01-14T09:02:41.985Z,-5.78
2019-01-14T09:03:42.461Z,-5.78
2019-01-14T09:04:42.929Z,-5.78
2019-01-14T09:05:43.400Z,-5.80
2019-01-14T09:06:43.871Z,-5.78
2019-01-14T09:07:44.346Z,-5.78
2019-01-14T09:08:44.813Z,-5.79
2019-01-14T09:09:45.286Z,-5.78
2019-01-14T09:10:45.758Z,-5.78
2019-01-14T09:11:46.231Z,-5.78
2019-01-14T09:12:46.702Z,-5.78
2019-01-14T09:13:47.172Z,-5.78
2019-01-14T09:14:47.644Z,-5.78
2019-01-14T09:15:48.169Z,-5.78
2019-01-14T09:16:48.589Z,-5.78
2019-01-14T09:17:49.059Z,-5.77
2019-01-14T09:18:49.530Z,-5.78
2019-01-14T09:19:50.002Z,-5.78
2019-01-14T09:20:50.474Z,-5.78
2019-01-14T09:21:50.948Z,-5.77
2019-01-14T09:22:51.417Z,-5.76
2019-01-14T09:23:51.888Z,-5.75
2019-01-14T09:24:52.361Z,-5.76
2019-01-14T09:25:53.860Z,-5.76
2019-01-14T09:26:53.303Z,-5.76
2019-01-14T09:27:53.775Z,-5.76
2019-01-14T09:28:54.244Z,-5.76
2019-01-14T09:29:54.720Z,-5.76
2019-01-14T09:30:55.188Z,-5.76
2019-01-14T09:31:55.664Z,-5.76
2019-01-14T09:32:56.132Z,-5.76
2019-01-14T09:33:56.604Z,-5.76
2019-01-14T09:34:57.074Z,-5.75
2019-01-14T09:35:57.547Z,-5.75
2019-01-14T09:36:58.017Z,-5.76
2019-01-14T09:37:58.489Z,-5.76
2019-01-14T09:38:58.964Z,-5.75
2019-01-14T09:39:59.433Z,-5.76
2019-01-14T09:40:59.905Z,-5.75
2019-01-14T09:42:00.378Z,-5.76
2019-01-14T09:43:00.888Z,-5.74
2019-01-14T09:44:01.319Z,-5.75
2019-01-14T09:45:01.807Z,-5.76
2019-01-14T09:46:02.312Z,-5.74
2019-01-14T09:47:02.737Z,-5.75
2019-01-14T09:48:03.204Z,-5.74
2019-01-14T09:49:03.676Z,-5.76
2019-01-14T09:50:04.148Z,-5.74
2019-01-14T09:51:04.707Z,-5.75
2019-01-14T09:52:05.091Z,-5.74
2019-01-14T09:53:05.561Z,-5.76
2019-01-14T09:54:06.039Z,-5.75
2019-01-14T09:55:06.506Z,-5.74
2019-01-14T09:56:07.028Z,-5.76
2019-01-14T09:57:07.449Z,-5.76
2019-01-14T09:58:07.918Z,-5.75
2019-01-14T09:59:08.391Z,-5.75
2019-01-14T10:00:08.864Z,-5.73
2019-01-14T10:01:09.375Z,-5.75
2019-01-14T10:02:09.807Z,-5.74
2019-01-14T10:03:10.277Z,-5.74
2019-01-14T10:04:10.749Z,-5.74
2019-01-14T10:05:11.223Z,-5.74
2019-01-14T10:06:11.693Z,-5.74
2019-01-14T10:07:12.203Z,-5.73
2019-01-14T10:08:12.686Z,-5.73
2019-01-14T10:09:13.108Z,-5.74
2019-01-14T10:10:13.581Z,-5.74
2019-01-14T10:11:14.252Z,-5.73
2019-01-14T10:12:14.526Z,-5.72
2019-01-14T10:13:14.993Z,-5.72
2019-01-14T10:14:15.464Z,-5.72
2019-01-14T10:15:15.938Z,-5.72
2019-01-14T10:16:16.407Z,-5.72
2019-01-14T10:17:16.946Z,-5.72
2019-01-14T10:18:17.359Z,-5.72
2019-01-14T10:19:17.825Z,-5.74
2019-01-14T10:20:18.295Z,-5.72
2019-01-14T10:21:18.767Z,-5.72
2019-01-14T10:22:19.237Z,-5.72
2019-01-14T10:23:19.709Z,-5.74
2019-01-14T10:24:20.180Z,-5.72
2019-01-14T10:25:20.655Z,-5.72
2019-01-14T10:26:21.175Z,-5.70
2019-01-14T10:27:21.596Z,-5.71
2019-01-14T10:28:22.069Z,-5.72
2019-01-14T10:29:22.539Z,-5.72
2019-01-14T10:30:23.011Z,-5.72
2019-01-14T10:31:23.531Z,-5.73
2019-01-14T10:32:23.976Z,-5.72
2019-01-14T10:33:24.425Z,-5.70
2019-01-14T10:34:24.900Z,-5.72
2019-01-14T10:35:25.367Z,-5.70
2019-01-14T10:36:25.839Z,-5.70
2019-01-14T10:37:26.310Z,-5.72
2019-01-14T10:38:26.782Z,-5.71
2019-01-14T10:39:27.254Z,-5.72
2019-01-14T10:40:27.725Z,-5.72
2019-01-14T10:41:28.198Z,-5.70
2019-01-14T10:42:28.671Z,-5.70
2019-01-14T10:43:29.139Z,-5.70
2019-01-14T10:44:29.661Z,-5.72
2019-01-14T10:45:30.087Z,-5.70
2019-01-14T10:46:30.554Z,-5.71
2019-01-14T10:47:31.026Z,-5.71
2019-01-14T10:48:31.497Z,-5.69
2019-01-14T10:49:31.968Z,-5.70
2019-01-14T10:50:32.441Z,-5.70
2019-01-14T10:51:32.962Z,-5.71
2019-01-14T10:52:33.384Z,-5.71
2019-01-14T10:53:33.860Z,-5.70
2019-01-14T10:54:34.326Z,-5.70
2019-01-14T10:55:34.799Z,-5.71
2019-01-14T10:56:35.270Z,-5.70
2019-01-14T10:57:35.742Z,-5.70
2019-01-14T10:58:36.217Z,-5.70
2019-01-14T10:59:36.685Z,-5.70
2019-01-14T11:00:37.157Z,-5.69
2019-01-14T11:01:37.629Z,-5.70
2019-01-14T11:02:38.102Z,-5.68
2019-01-14T11:03:38.570Z,-5.70
2019-01-14T11:04:39.042Z,-5.70
2019-01-14T11:05:39.514Z,-5.70
2019-01-14T11:06:40.089Z,-5.70
2019-01-14T11:07:40.457Z,-5.68
2019-01-14T11:08:40.928Z,-5.68
2019-01-14T11:09:44.661Z,-5.69
2019-01-14T11:10:41.874Z,-5.71
2019-01-14T11:11:42.343Z,-5.70
2019-01-14T11:12:42.816Z,-5.70
2019-01-14T11:13:43.292Z,-5.70
2019-01-14T11:14:43.758Z,-5.69
2019-01-14T11:15:44.231Z,-5.70
2019-01-14T11:16:44.701Z,-5.70
2019-01-14T11:17:45.179Z,-5.70
2019-01-14T11:18:45.645Z,-5.68
2019-01-14T11:19:46.116Z,-5.69
2019-01-14T11:20:46.588Z,-5.68
2019-01-14T11:21:47.059Z,-5.70
2019-01-14T11:22:47.533Z,-5.70
2019-01-14T11:23:48.002Z,-5.69
2019-01-14T11:24:48.475Z,-5.70
2019-01-14T11:25:48.945Z,-5.70
2019-01-14T11:26:49.418Z,-5.68
2019-01-14T11:27:50.229Z,-5.68
2019-01-14T11:28:50.361Z,-5.69
2019-01-14T11:29:50.831Z,-5.70
2019-01-14T11:30:51.304Z,-5.69
2019-01-14T11:31:51.775Z,-5.69
2019-01-14T11:32:52.246Z,-5.68
2019-01-14T11:33:52.718Z,-5.68
2019-01-14T11:34:53.190Z,-5.68
2019-01-14T11:35:53.660Z,-5.68
2019-01-14T11:36:54.133Z,-5.68
2019-01-14T11:37:54.643Z,-5.68
2019-01-14T11:38:55.075Z,-5.68
2019-01-14T11:39:55.548Z,-5.68
2019-01-14T11:40:56.018Z,-5.67
2019-01-14T11:41:56.493Z,-5.67
2019-01-14T11:42:56.966Z,-5.68
2019-01-14T11:43:57.433Z,-5.68
2019-01-14T11:44:57.907Z,-5.68
2019-01-14T11:45:58.376Z,-5.68
2019-01-14T11:46:58.848Z,-5.68
2019-01-14T11:47:59.319Z,-5.68
2019-01-14T11:48:59.791Z,-5.68
2019-01-14T11:50:00.265Z,-5.68
2019-01-14T11:51:00.736Z,-5.68
2019-01-14T11:52:01.205Z,-5.68
2019-01-14T11:53:01.684Z,-5.68
2019-01-14T11:54:02.154Z,-5.68
2019-01-14T11:55:02.619Z,-5.68
2019-01-14T11:56:03.095Z,-5.68
2019-01-14T11:57:03.562Z,-5.68
2019-01-14T11:58:04.035Z,-5.68
2019-01-14T11:59:04.510Z,-5.68
2019-01-14T12:00:04.977Z,-5.66
2019-01-14T12:01:05.448Z,-5.67
2019-01-14T12:02:05.925Z,-5.68
2019-01-14T12:03:06.396Z,-5.68
2019-01-14T12:04:06.862Z,-5.68
2019-01-14T12:05:07.336Z,-5.68
2019-01-14T12:06:07.809Z,-5.66
2019-01-14T12:07:08.280Z,-5.66
2019-01-14T12:08:08.751Z,-5.66
2019-01-14T12:09:12.254Z,-5.66
2019-01-14T12:10:09.693Z,-5.66
2019-01-14T12:11:10.166Z,-5.67
2019-01-14T12:12:10.635Z,-5.65
2019-01-14T12:13:11.106Z,-5.66
2019-01-14T12:14:11.581Z,-5.66
2019-01-14T12:15:12.052Z,-5.66
2019-01-14T12:16:12.520Z,-5.67
2019-01-14T12:17:13.098Z,-5.66
2019-01-14T12:18:13.466Z,-5.66
2019-01-14T12:19:14.279Z,-5.66
2019-01-14T12:20:14.444Z,-5.65
2019-01-14T12:21:14.881Z,-5.66
2019-01-14T12:22:15.745Z,-5.66
2019-01-14T12:23:15.835Z,-5.64
2019-01-14T12:24:16.294Z,-5.64
2019-01-14T12:25:16.765Z,-5.68
2019-01-14T12:26:17.237Z,-5.66
2019-01-14T12:27:17.708Z,-5.64
2019-01-14T12:28:18.183Z,-5.66
2019-01-14T12:29:18.653Z,-5.66
2019-01-14T12:30:19.463Z,-5.66
2019-01-14T12:31:19.596Z,-5.66
2019-01-14T12:32:20.065Z,-5.66
2019-01-14T12:33:20.538Z,-5.64
2019-01-14T12:34:21.009Z,-5.66
2019-01-14T12:35:21.481Z,-5.65
2019-01-14T12:36:21.951Z,-5.64
2019-01-14T12:37:22.625Z,-5.64
2019-01-14T12:38:22.896Z,-5.66
2019-01-14T12:39:23.367Z,-5.66
2019-01-14T12:40:25.215Z,-5.65
2019-01-14T12:41:24.652Z,-5.64
2019-01-14T12:42:24.781Z,-5.64
2019-01-14T12:43:25.595Z,-5.64
2019-01-14T12:44:25.725Z,-5.66
2019-01-14T12:45:26.197Z,-5.66
2019-01-14T12:46:27.009Z,-5.66
2019-01-14T12:47:27.139Z,-5.64
2019-01-14T12:48:27.610Z,-5.66
2019-01-14T12:49:28.082Z,-5.66
2019-01-14T12:50:28.592Z,-5.64
2019-01-14T12:51:29.034Z,-5.66
2019-01-14T12:52:29.503Z,-5.65
2019-01-14T12:53:30.590Z,-5.64
2019-01-14T12:54:30.477Z,-5.64
2019-01-14T12:55:30.911Z,-5.66
2019-01-14T12:56:31.382Z,-5.65
2019-01-14T12:57:31.956Z,-5.65
2019-01-14T12:58:32.325Z,-5.64
2019-01-14T12:59:32.799Z,-5.65